Time;durP1;ratioP1;P1;durP2;ratioP2;P2;SDS_P1;SDS_P2;PMS_P1;PMS_P2;Temp;Humidity;BMP_temperature;BMP_pressure;BME280_temperature;BME280_humidity;BME280_pressure;Samples;Min_cycle;Max_cycle;Signal;HPM_P1;HPM_P2
2021/06/09 00:01:23;;;;;;;10.75;3.75;;;;;;;27.99;33.07;101680.06;5046513;28;20027;-77
2021/06/09 00:03:49;;;;;;;11.50;3.85;;;;;;;28.01;32.97;101674.84;5038481;28;20021;-77
2021/06/09 00:06:14;;;;;;;12.23;4.55;;;;;;;27.91;32.87;101677.31;5040013;28;20032;-77
2021/06/09 00:08:40;;;;;;;10.10;3.50;;;;;;;27.91;33.14;101682.13;5069703;28;20029;-76
2021/06/09 00:11:06;;;;;;;15.07;4.57;;;;;;;27.84;33.14;101676.53;5055437;28;20028;-83
2021/06/09 00:13:33;;;;;;;9.88;3.72;;;;;;;27.82;33.14;101678.97;5071340;28;20046;-76
2021/06/09 00:16:02;;;;;;;16.98;4.15;;;;;;;27.82;33.44;101673.34;5053074;28;20033;-76
2021/06/09 00:18:27;;;;;;;11.45;4.00;;;;;;;27.81;33.38;101674.53;5042888;28;20464;-77
2021/06/09 00:20:53;;;;;;;7.13;5.03;;;;;;;27.83;33.43;101664.50;5052576;28;20042;-77
2021/06/09 00:23:24;;;;;;;8.15;4.13;;;;;;;27.84;33.46;101662.50;5056748;28;20020;-76
2021/06/09 00:25:52;;;;;;;8.30;3.40;;;;;;;27.85;33.39;101672.53;5047814;28;20037;-77
2021/06/09 00:28:18;;;;;;;8.73;3.88;;;;;;;27.76;33.77;101658.94;5037338;28;20537;-76
2021/06/09 00:30:45;;;;;;;11.35;4.45;;;;;;;27.80;33.74;101665.31;5036505;28;20041;-76
2021/06/09 00:33:11;;;;;;;11.63;4.50;;;;;;;27.88;33.59;101660.47;5051463;28;20025;-76
2021/06/09 00:35:37;;;;;;;10.43;3.72;;;;;;;27.84;33.68;101659.69;5052783;28;20033;-82
2021/06/09 00:38:04;;;;;;;14.40;4.85;;;;;;;27.86;33.67;101660.09;5052914;28;20029;-76
2021/06/09 00:40:32;;;;;;;8.70;3.88;;;;;;;27.91;33.50;101665.28;5052855;28;20036;-77
2021/06/09 00:43:10;;;;;;;10.00;4.32;;;;;;;27.93;33.63;101660.03;5052663;28;20021;-76
2021/06/09 00:45:38;;;;;;;13.48;4.50;;;;;;;27.97;33.47;101660.84;5052639;28;20021;-86
2021/06/09 00:48:05;;;;;;;13.57;4.22;;;;;;;27.86;33.63;101660.09;5052969;28;20025;-86
2021/06/09 00:50:31;;;;;;;11.52;3.85;;;;;;;27.76;33.84;101650.50;5052691;28;20021;-76
2021/06/09 00:55:42;;;;;;;14.93;3.95;;;;;;;27.67;33.86;101650.16;5053119;28;20059;-76
2021/06/09 00:58:10;;;;;;;8.63;3.85;;;;;;;27.62;34.04;101648.53;5052750;28;20502;-76
2021/06/09 01:00:36;;;;;;;8.45;4.15;;;;;;;27.53;34.24;101639.78;5052451;28;20017;-87
2021/06/09 01:03:02;;;;;;;8.63;3.92;;;;;;;27.50;34.51;101636.97;5051851;28;20040;-76
2021/06/09 01:05:28;;;;;;;9.63;3.72;;;;;;;27.49;34.48;101632.56;5053074;28;20024;-77
2021/06/09 01:07:54;;;;;;;11.23;4.20;;;;;;;27.49;34.40;101626.94;5052537;28;20135;-76
2021/06/09 01:10:20;;;;;;;7.97;3.38;;;;;;;27.45;34.29;101631.78;5052868;28;20119;-76
2021/06/09 01:12:46;;;;;;;7.82;3.75;;;;;;;27.42;34.45;101630.59;5061336;28;20058;-76
2021/06/09 01:15:13;;;;;;;7.07;3.38;;;;;;;27.48;34.40;101628.16;5092629;28;20115;-76
2021/06/09 01:17:38;;;;;;;6.97;3.38;;;;;;;27.50;34.53;101632.16;5092620;28;20024;-77
2021/06/09 01:20:05;;;;;;;7.43;3.78;;;;;;;27.51;34.48;101633.78;5092450;28;20035;-80
2021/06/09 01:22:31;;;;;;;13.10;4.47;;;;;;;27.48;34.54;101637.38;5092445;28;20058;-86
2021/06/09 01:24:56;;;;;;;8.95;3.38;;;;;;;27.48;34.77;101636.59;5083375;28;20121;-77
2021/06/09 01:27:23;;;;;;;8.55;3.75;;;;;;;27.48;34.59;101637.38;5058340;28;20029;-76
2021/06/09 01:29:49;;;;;;;7.63;3.30;;;;;;;27.52;34.46;101638.19;5056075;28;20021;-76
2021/06/09 01:32:16;;;;;;;10.00;3.95;;;;;;;27.50;34.55;101632.16;5072400;28;20020;-76
2021/06/09 01:34:42;;;;;;;8.63;3.78;;;;;;;27.52;34.60;101638.19;5076175;28;20032;-77
2021/06/09 01:37:07;;;;;;;8.18;3.60;;;;;;;27.53;34.66;101631.34;5055978;28;20032;-76
2021/06/09 01:39:33;;;;;;;8.55;3.58;;;;;;;27.58;34.51;101633.75;5055574;28;20085;-76
2021/06/09 01:41:58;;;;;;;9.25;3.92;;;;;;;27.57;34.40;101629.31;5056113;28;20111;-77
2021/06/09 01:44:24;;;;;;;8.35;3.85;;;;;;;27.57;34.29;101634.94;5067552;28;20020;-76
2021/06/09 01:46:52;;;;;;;7.80;4.05;;;;;;;27.59;34.39;101640.16;5068322;28;20036;-77
2021/06/09 01:49:18;;;;;;;8.43;4.07;;;;;;;27.64;34.43;101629.28;5072110;28;20505;-76
2021/06/09 01:51:44;;;;;;;7.90;3.95;;;;;;;27.58;34.69;101630.09;5072105;28;20032;-76
2021/06/09 01:54:11;;;;;;;9.00;3.50;;;;;;;27.64;34.47;101620.84;5072111;28;20059;-76
2021/06/09 01:56:37;;;;;;;8.68;3.85;;;;;;;27.62;34.63;101614.84;5069201;28;20037;-75
2021/06/09 01:59:14;;;;;;;12.27;4.35;;;;;;;27.68;34.47;101620.88;5071967;28;20174;-76
2021/06/09 02:01:40;;;;;;;9.50;4.13;;;;;;;27.58;34.81;101608.47;5071998;28;20047;-76
2021/06/09 02:04:11;;;;;;;7.32;3.80;;;;;;;27.64;34.71;101606.03;5071745;28;20470;-76
2021/06/09 02:06:38;;;;;;;5.90;3.58;;;;;;;27.68;34.63;101606.03;5071282;28;20028;-76
2021/06/09 02:09:04;;;;;;;11.60;4.35;;;;;;;27.76;34.53;101601.97;5071965;28;20024;-78
2021/06/09 02:11:30;;;;;;;6.88;4.25;;;;;;;27.75;34.66;101601.19;5071876;28;20025;-77
2021/06/09 02:13:56;;;;;;;8.55;4.50;;;;;;;27.76;34.90;101602.78;5052711;28;20511;-87
2021/06/09 02:16:21;;;;;;;9.40;4.28;;;;;;;27.74;34.81;101596.78;5055788;28;20071;-87
2021/06/09 02:18:47;;;;;;;9.50;4.30;;;;;;;27.80;34.77;101603.53;5055475;28;20024;-76
2021/06/09 02:21:13;;;;;;;8.15;4.80;;;;;;;27.77;34.98;101609.19;5055535;28;20171;-76
2021/06/09 02:23:43;;;;;;;8.43;4.28;;;;;;;27.65;35.20;101605.59;5070835;28;20025;-76
2021/06/09 02:26:09;;;;;;;7.20;4.47;;;;;;;27.60;35.16;101594.03;5055151;28;20029;-76
2021/06/09 02:28:35;;;;;;;8.65;4.32;;;;;;;27.65;35.12;101593.56;5055303;28;20035;-76
2021/06/09 02:31:01;;;;;;;11.50;5.78;;;;;;;27.56;35.59;101602.44;5055522;28;20023;-76
2021/06/09 02:33:28;;;;;;;9.48;4.63;;;;;;;27.58;35.62;101602.88;5055373;28;20028;-76
2021/06/09 02:35:55;;;;;;;7.50;4.20;;;;;;;27.57;35.60;101600.44;5055196;28;20035;-77
2021/06/09 02:38:21;;;;;;;8.23;4.85;;;;;;;27.58;35.58;101594.44;5055426;28;20036;-77
2021/06/09 02:40:51;;;;;;;7.88;4.30;;;;;;;27.54;35.77;101587.25;5054240;28;20029;-76
2021/06/09 02:43:17;;;;;;;9.27;4.75;;;;;;;27.65;35.53;101585.94;5054169;28;20047;-76
2021/06/09 02:45:49;;;;;;;14.40;5.78;;;;;;;27.68;35.67;101586.41;5055179;28;20033;-86
2021/06/09 02:48:17;;;;;;;7.50;4.55;;;;;;;27.62;35.58;101583.19;5054927;28;20043;-76
2021/06/09 02:50:43;;;;;;;9.27;4.70;;;;;;;27.60;35.62;101582.81;5054903;28;20025;-76
2021/06/09 02:53:32;;;;;;;13.32;4.93;;;;;;;27.53;36.29;101582.84;5051105;28;20036;-76
2021/06/09 02:56:48;;;;;;;10.23;4.65;;;;;;;27.50;35.96;101567.59;5038348;28;20025;-84
2021/06/09 02:59:55;;;;;;;14.55;5.40;;;;;;;27.54;35.65;101571.19;4956728;28;20055;-77
2021/06/09 03:02:45;;;;;;;10.45;5.43;;;;;;;27.50;35.76;101569.59;5038544;28;20029;-77
2021/06/09 03:05:18;;;;;;;8.30;5.38;;;;;;;27.55;35.77;101569.97;5038129;28;20048;-82
2021/06/09 03:07:55;;;;;;;12.70;5.57;;;;;;;27.58;35.82;101552.34;5038481;28;20028;-78
2021/06/09 03:10:27;;;;;;;11.07;5.20;;;;;;;27.50;36.10;101553.56;5036382;28;20024;-78
2021/06/09 03:13:20;;;;;;;7.53;5.15;;;;;;;27.46;36.09;101552.81;5049323;28;20506;-76
2021/06/09 03:16:08;;;;;;;10.38;5.35;;;;;;;27.32;36.55;101541.66;5067549;28;20510;-76
2021/06/09 03:18:42;;;;;;;13.52;6.43;;;;;;;27.40;36.34;101540.41;5073622;28;20530;-86
2021/06/09 03:21:14;;;;;;;11.00;5.47;;;;;;;27.45;36.43;101542.00;5056394;28;20020;-76
2021/06/09 03:23:47;;;;;;;10.48;5.45;;;;;;;27.37;36.65;101532.81;5056176;28;20028;-76
2021/06/09 03:27:04;;;;;;;10.80;5.30;;;;;;;27.23;37.18;101530.09;5072819;28;20123;-76
2021/06/09 03:29:55;;;;;;;9.30;5.20;;;;;;;27.46;36.64;101527.53;5036170;28;20097;-76
2021/06/09 03:32:55;;;;;;;7.65;4.95;;;;;;;27.38;36.91;101521.16;5093527;28;20036;-77
2021/06/09 03:35:23;;;;;;;;;;;;;;;27.49;36.66;101532.31;5052582;28;20516;-76
2021/06/09 03:37:53;;;;;;;9.05;4.93;;;;;;;27.51;36.46;101529.13;5059169;28;20374;-76
2021/06/09 03:40:34;;;;;;;10.85;4.68;;;;;;;27.37;36.80;101524.41;5081750;28;20501;-76
2021/06/09 03:43:01;;;;;;;;;;;;;;;27.37;37.17;101527.19;5058873;28;20127;-76
2021/06/09 03:45:29;;;;;;;9.63;4.75;;;;;;;27.52;36.58;101522.31;5058030;28;19975;-77
2021/06/09 03:47:56;;;;;;;11.05;4.72;;;;;;;27.56;36.57;101523.06;5069376;28;20098;-76
2021/06/09 03:50:24;;;;;;;8.95;4.57;;;;;;;27.49;36.38;101526.72;5056639;28;20035;-76
2021/06/09 03:52:51;;;;;;;12.65;5.20;;;;;;;27.44;36.78;101527.16;5057683;28;20482;-76
2021/06/09 03:55:23;;;;;;;9.52;5.28;;;;;;;27.36;36.82;101522.81;5074620;28;20036;-76
2021/06/09 03:57:52;;;;;;;10.90;5.45;;;;;;;27.46;36.78;101521.94;5076901;28;20645;-76
2021/06/09 04:00:18;;;;;;;13.52;5.70;;;;;;;27.42;36.66;101535.16;5058421;28;20562;-76
2021/06/09 04:02:47;;;;;;;9.02;4.93;;;;;;;27.43;36.67;101539.56;5041212;28;20038;-76
2021/06/09 04:05:13;;;;;;;11.77;5.22;;;;;;;27.56;36.46;101525.88;5073383;28;20037;-86
2021/06/09 04:07:43;;;;;;;8.15;4.72;;;;;;;27.53;36.40;101521.09;5073529;28;20102;-76
2021/06/09 04:10:09;;;;;;;;;;;;;;;27.43;36.85;101528.34;5074081;28;20025;-76
2021/06/09 04:12:35;;;;;;;10.23;4.78;;;;;;;27.56;36.88;101520.25;5055161;28;19916;-76
2021/06/09 04:15:02;;;;;;;8.25;4.95;;;;;;;27.51;36.59;101521.50;5073510;28;20036;-76
2021/06/09 04:17:29;;;;;;;12.02;4.90;;;;;;;27.36;37.10;101508.78;5073541;28;20520;-76
2021/06/09 04:20:00;;;;;;;10.13;4.63;;;;;;;27.36;37.07;101511.56;5073044;28;20028;-87
2021/06/09 04:22:26;;;;;;;9.45;4.55;;;;;;;27.40;37.11;101506.72;5073137;28;20453;-76
2021/06/09 04:24:52;;;;;;;11.75;4.95;;;;;;;27.40;36.86;101503.91;5072958;28;20032;-76
2021/06/09 04:27:21;;;;;;;11.23;4.53;;;;;;;27.10;37.77;101510.88;5072959;28;20475;-76
2021/06/09 04:29:49;;;;;;;10.35;4.63;;;;;;;27.18;37.39;101513.66;5072998;28;20453;-76
2021/06/09 04:32:15;;;;;;;9.70;4.53;;;;;;;27.27;37.30;101511.22;5073231;28;20036;-76
2021/06/09 04:34:45;;;;;;;12.27;4.43;;;;;;;27.31;37.54;101510.00;5072843;28;20020;-76
2021/06/09 04:37:12;;;;;;;10.25;4.35;;;;;;;27.33;37.29;101513.19;5072917;28;20031;-76
2021/06/09 04:39:38;;;;;;;9.43;4.25;;;;;;;27.23;37.71;101510.44;5055193;28;20063;-77
2021/06/09 04:42:06;;;;;;;7.28;3.72;;;;;;;27.24;37.63;101500.81;5072782;28;20081;-76
2021/06/09 04:44:33;;;;;;;11.15;4.15;;;;;;;27.31;37.61;101506.38;5072650;28;20505;-76
2021/06/09 04:46:59;;;;;;;12.20;4.18;;;;;;;27.33;37.49;101506.75;5055038;28;20028;-76
2021/06/09 04:49:37;;;;;;;7.53;3.65;;;;;;;27.36;37.43;101511.56;5072805;28;20108;-76
2021/06/09 04:52:05;;;;;;;5.88;3.72;;;;;;;27.45;37.33;101508.31;5071956;28;20047;-87
2021/06/09 04:54:30;;;;;;;11.50;4.75;;;;;;;27.54;37.30;101506.63;5072024;28;20033;-83
2021/06/09 04:56:57;;;;;;;10.95;3.90;;;;;;;27.48;37.49;101499.06;5072857;28;20101;-77
2021/06/09 04:59:22;;;;;;;7.55;3.67;;;;;;;27.62;37.31;101501.78;5072819;28;20468;-76
2021/06/09 05:01:49;;;;;;;7.47;3.55;;;;;;;27.48;37.51;101497.06;5072625;28;20153;-86
2021/06/09 05:04:15;;;;;;;24.98;5.80;;;;;;;27.61;37.33;101500.97;5072591;28;20056;-76
2021/06/09 05:06:40;;;;;;;4.88;3.00;;;;;;;27.61;37.34;101498.16;5072773;28;20446;-75
2021/06/09 05:09:08;;;;;;;8.02;4.03;;;;;;;27.30;38.22;101493.56;5072626;28;20099;-76
2021/06/09 05:12:15;;;;;;;8.90;4.72;;;;;;;27.00;38.71;101499.72;5072445;28;20467;-76
2021/06/09 05:14:48;;;;;;;6.22;3.55;;;;;;;27.17;38.30;101501.66;5039089;28;20162;-76
2021/06/09 05:17:19;;;;;;;6.05;3.67;;;;;;;27.44;38.00;101498.31;5052523;28;20033;-76
2021/06/09 05:19:48;;;;;;;10.65;4.63;;;;;;;27.48;37.79;101502.66;5052598;28;20074;-76
2021/06/09 05:22:26;;;;;;;5.90;4.65;;;;;;;27.37;38.24;101510.38;5052581;28;20578;-76
2021/06/09 05:24:54;;;;;;;7.10;3.95;;;;;;;27.36;38.22;101500.34;5046595;28;20025;-76
2021/06/09 05:27:22;;;;;;;6.78;3.75;;;;;;;27.38;38.07;101500.72;5041924;28;20067;-76
2021/06/09 05:29:49;;;;;;;12.40;4.22;;;;;;;27.42;38.17;101504.31;5052552;28;20525;-77
2021/06/09 05:32:16;;;;;;;6.80;4.18;;;;;;;27.56;37.95;101507.00;5052667;28;20021;-75
2021/06/09 05:34:43;;;;;;;7.63;4.45;;;;;;;27.71;37.57;101496.50;5052405;28;20025;-76
2021/06/09 05:37:10;;;;;;;7.43;4.28;;;;;;;27.64;37.92;101502.16;5052544;28;20029;-87
2021/06/09 05:39:38;;;;;;;14.32;5.57;;;;;;;27.58;38.06;101496.19;5052601;28;20048;-76
2021/06/09 05:42:12;;;;;;;7.88;4.40;;;;;;;27.72;37.68;101500.91;5052346;28;20065;-76
2021/06/09 05:44:47;;;;;;;8.18;4.25;;;;;;;27.62;38.15;101496.16;5050873;28;20021;-87
2021/06/09 05:47:14;;;;;;;10.30;4.55;;;;;;;27.74;37.63;101492.09;5052279;28;20104;-77
2021/06/09 05:49:40;;;;;;;8.80;5.05;;;;;;;27.53;38.14;101493.03;5054442;28;20635;-76
2021/06/09 05:52:06;;;;;;;9.05;5.10;;;;;;;27.65;37.80;101486.91;5052523;28;20780;-76
2021/06/09 05:54:37;;;;;;;10.15;5.47;;;;;;;27.77;37.68;101485.66;5032991;28;20021;-76
2021/06/09 05:57:08;;;;;;;19.25;5.70;;;;;;;27.87;37.47;101493.97;5040534;28;20846;-77
2021/06/09 05:59:34;;;;;;;9.50;4.50;;;;;;;27.92;37.32;101487.94;5040060;28;20017;-77
2021/06/09 06:02:00;;;;;;;8.38;4.95;;;;;;;27.97;37.27;101494.31;5040192;28;20498;-86
2021/06/09 06:04:27;;;;;;;8.02;4.38;;;;;;;27.85;37.56;101495.63;5051328;28;20021;-76
2021/06/09 06:06:53;;;;;;;7.80;4.63;;;;;;;27.91;37.13;101496.78;5039141;28;20043;-77
2021/06/09 06:09:20;;;;;;;8.18;5.47;;;;;;;27.89;37.34;101504.81;5039151;28;20792;-76
2021/06/09 06:11:47;;;;;;;11.75;4.97;;;;;;;27.72;37.86;101502.94;5021022;28;20028;-77
2021/06/09 06:14:13;;;;;;;7.22;5.10;;;;;;;27.88;37.57;101497.56;5041166;28;21435;-76
2021/06/09 06:16:50;;;;;;;5.93;4.22;;;;;;;28.09;37.06;101493.78;5061550;28;20471;-76
2021/06/09 06:19:15;;;;;;;13.15;5.63;;;;;;;28.09;37.16;101493.78;5058687;28;20797;-76
2021/06/09 06:21:41;;;;;;;9.20;3.83;;;;;;;28.12;37.15;101487.38;5053784;28;20032;-77
2021/06/09 06:24:08;;;;;;;7.45;4.70;;;;;;;28.02;37.69;101485.44;5054558;28;20463;-77
2021/06/09 06:26:36;;;;;;;5.25;3.53;;;;;;;28.14;37.33;101491.34;5036608;28;20497;-86
2021/06/09 06:29:01;;;;;;;8.80;4.97;;;;;;;28.17;37.38;101484.88;5054261;28;20494;-76
2021/06/09 06:31:29;;;;;;;5.82;4.10;;;;;;;28.19;37.37;101479.66;5053902;28;20024;-77
2021/06/09 06:33:59;;;;;;;17.63;4.45;;;;;;;27.88;38.28;101489.94;5037518;28;20119;-77
2021/06/09 06:36:26;;;;;;;10.75;5.38;;;;;;;28.18;37.55;101483.66;5059132;28;20028;-77
2021/06/09 06:38:52;;;;;;;6.60;3.88;;;;;;;28.18;37.69;101478.03;5059075;28;20024;-76
2021/06/09 06:41:21;;;;;;;6.50;3.80;;;;;;;28.33;37.45;101470.28;5057893;28;20113;-78
2021/06/09 06:43:46;;;;;;;10.10;4.13;;;;;;;28.51;37.09;101475.75;5040780;28;20024;-77
2021/06/09 06:46:17;;;;;;;7.60;4.30;;;;;;;28.55;37.07;101468.03;5040364;28;20387;-78
2021/06/09 06:48:46;;;;;;;23.55;4.85;;;;;;;28.48;37.50;101451.25;5048195;28;20029;-77
2021/06/09 06:51:13;;;;;;;6.72;3.50;;;;;;;28.49;37.54;101458.50;5038458;28;20025;-77
2021/06/09 06:53:41;;;;;;;12.82;4.03;;;;;;;28.64;37.08;101453.47;5038013;28;20021;-76
2021/06/09 06:56:08;;;;;;;4.28;2.83;;;;;;;28.73;36.90;101465.03;5037449;28;20021;-76
2021/06/09 06:58:35;;;;;;;5.75;2.63;;;;;;;28.62;37.27;101467.97;5038767;28;20029;-76
2021/06/09 07:01:01;;;;;;;6.50;2.85;;;;;;;28.73;36.98;101479.09;5037239;28;20052;-76
2021/06/09 07:03:28;;;;;;;4.88;3.10;;;;;;;28.66;37.41;101474.34;5038079;28;20075;-83
2021/06/09 07:05:55;;;;;;;3.72;2.33;;;;;;;28.70;37.45;101479.91;5045898;28;20028;-79
2021/06/09 07:08:22;;;;;;;11.52;2.80;;;;;;;28.69;37.15;101472.72;5036217;28;20025;-78
2021/06/09 07:10:48;;;;;;;5.03;2.42;;;;;;;28.85;37.15;101483.34;5051943;28;20097;-78
2021/06/09 07:13:15;;;;;;;7.70;3.33;;;;;;;28.92;37.02;101480.47;5039430;28;20098;-79
2021/06/09 07:15:41;;;;;;;5.15;2.67;;;;;;;28.99;36.89;101491.66;5046219;28;20151;-77
2021/06/09 07:18:08;;;;;;;6.03;3.00;;;;;;;29.16;36.51;101493.41;5063941;28;20104;-77
2021/06/09 07:20:34;;;;;;;5.50;3.00;;;;;;;28.94;36.97;101494.91;5062613;28;20021;-76
2021/06/09 07:23:00;;;;;;;5.20;2.53;;;;;;;29.10;36.75;101495.13;5063947;28;20024;-78
2021/06/09 07:25:28;;;;;;;5.65;2.83;;;;;;;29.05;36.77;101489.97;5064155;28;20021;-76
2021/06/09 07:27:58;;;;;;;5.90;3.40;;;;;;;28.83;37.19;101491.44;5062833;28;20517;-80
2021/06/09 07:30:28;;;;;;;9.18;3.00;;;;;;;28.69;37.47;101495.19;5063235;28;20364;-76
2021/06/09 07:32:54;;;;;;;11.38;3.75;;;;;;;29.00;36.57;101485.59;5063546;28;20025;-77
2021/06/09 07:35:19;;;;;;;7.88;3.45;;;;;;;29.20;36.36;101482.13;5045328;28;20040;-76
2021/06/09 07:37:51;;;;;;;5.00;3.05;;;;;;;29.14;36.59;101486.63;5062096;28;20033;-77
2021/06/09 07:40:20;;;;;;;12.10;3.78;;;;;;;29.14;36.51;101484.59;5060302;28;20060;-78
2021/06/09 07:42:50;;;;;;;5.88;3.05;;;;;;;29.23;36.55;101481.28;5062163;28;20039;-76
2021/06/09 07:45:18;;;;;;;7.57;3.22;;;;;;;29.23;36.33;101478.44;5062147;28;20028;-76
2021/06/09 07:47:47;;;;;;;36.33;6.07;;;;;;;29.33;36.39;101488.78;5044296;28;20032;-76
2021/06/09 07:50:14;;;;;;;5.55;3.08;;;;;;;29.48;36.25;101486.56;5062788;28;20025;-76
2021/06/09 07:52:44;;;;;;;8.45;3.15;;;;;;;29.39;36.25;101487.06;5056239;28;20036;-86
2021/06/09 07:55:11;;;;;;;8.27;4.05;;;;;;;29.40;36.26;101480.22;5061228;28;20029;-76
2021/06/09 07:57:39;;;;;;;9.95;4.93;;;;;;;29.46;36.47;101481.31;5043472;28;20040;-82
2021/06/09 08:00:08;;;;;;;8.32;4.15;;;;;;;29.61;36.00;101478.31;5062758;28;20108;-76
2021/06/09 08:02:35;;;;;;;6.43;3.53;;;;;;;29.87;35.66;101479.50;5062110;28;20036;-79
2021/06/09 08:05:05;;;;;;;8.65;3.80;;;;;;;29.91;35.57;101477.41;5062486;28;20029;-85
2021/06/09 08:07:31;;;;;;;6.72;3.30;;;;;;;29.95;35.34;101473.31;5061996;28;20539;-78
2021/06/09 08:09:56;;;;;;;7.18;3.83;;;;;;;29.90;35.53;101471.00;5043427;28;20028;-86
2021/06/09 08:12:22;;;;;;;12.50;3.67;;;;;;;29.90;35.77;101476.63;5060433;28;20086;-78
2021/06/09 08:14:48;;;;;;;8.07;4.30;;;;;;;29.86;35.76;101475.13;5072908;28;20025;-76
2021/06/09 08:17:14;;;;;;;7.93;4.15;;;;;;;30.06;35.46;101470.31;5071241;28;20620;-76
2021/06/09 08:19:41;;;;;;;7.15;3.00;;;;;;;30.20;35.23;101481.34;5071904;28;20507;-78
2021/06/09 08:22:07;;;;;;;12.25;4.13;;;;;;;30.46;35.02;101462.75;5053681;28;20035;-79
2021/06/09 08:24:39;;;;;;;5.70;2.60;;;;;;;30.33;35.59;101471.03;5072012;28;20025;-78
2021/06/09 08:27:15;;;;;;;6.10;2.90;;;;;;;30.56;35.15;101470.19;5054631;28;20383;-88
2021/06/09 08:29:42;;;;;;;5.80;3.08;;;;;;;30.69;34.80;101476.03;5072519;28;20029;-77
2021/06/09 08:32:08;;;;;;;11.85;4.05;;;;;;;30.93;34.48;101466.22;5071868;28;20107;-77
2021/06/09 08:34:34;;;;;;;7.15;2.80;;;;;;;31.01;34.48;101468.88;5071980;28;20024;-76
2021/06/09 08:37:00;;;;;;;5.30;2.80;;;;;;;30.94;34.44;101467.81;5071718;28;20073;-85
2021/06/09 08:39:27;;;;;;;4.55;2.33;;;;;;;31.07;34.32;101475.63;5072167;28;20035;-77
2021/06/09 08:41:55;;;;;;;6.43;2.45;;;;;;;31.08;33.86;101466.72;5069958;28;20025;-77
2021/06/09 08:44:22;;;;;;;8.80;3.53;;;;;;;31.17;33.77;101471.75;5072188;28;20021;-88
2021/06/09 08:46:49;;;;;;;7.95;2.80;;;;;;;30.85;34.82;101472.47;5072482;28;20033;-85
2021/06/09 08:49:17;;;;;;;6.10;2.58;;;;;;;30.82;34.28;101462.03;5071443;28;20119;-84
2021/06/09 08:51:43;;;;;;;6.40;2.78;;;;;;;31.11;34.20;101474.28;5072544;28;20104;-85
2021/06/09 08:54:09;;;;;;;8.70;3.15;;;;;;;31.28;33.85;101469.50;5072214;28;20111;-77
2021/06/09 08:56:38;;;;;;;8.15;2.58;;;;;;;31.25;33.93;101464.72;5072782;28;20538;-83
2021/06/09 08:59:06;;;;;;;6.80;1.92;;;;;;;31.58;33.67;101461.94;5072813;28;20024;-77
2021/06/09 09:01:33;;;;;;;5.25;2.30;;;;;;;31.74;33.27;101457.09;5072710;28;20024;-87
2021/06/09 09:04:00;;;;;;;7.25;2.63;;;;;;;31.69;33.17;101466.09;5072478;28;20674;-80
2021/06/09 09:06:26;;;;;;;5.88;2.30;;;;;;;31.68;33.29;101453.22;5072701;28;20036;-87
2021/06/09 09:08:54;;;;;;;7.13;2.40;;;;;;;31.78;33.33;101468.31;5055691;28;20033;-87
2021/06/09 09:11:24;;;;;;;6.43;2.95;;;;;;;31.53;33.45;101454.00;5054265;28;20626;-89
2021/06/09 09:13:50;;;;;;;4.47;2.70;;;;;;;31.82;33.21;101454.91;5072726;28;20525;-83
2021/06/09 09:16:16;;;;;;;10.63;2.60;;;;;;;31.85;32.72;101447.56;5072477;28;20068;-82
2021/06/09 09:18:44;;;;;;;10.63;2.67;;;;;;;31.82;33.16;101457.75;5071995;28;20111;-76
2021/06/09 09:21:34;;;;;;;6.60;2.03;;;;;;;31.73;33.59;101458.31;5071810;28;20024;-77
2021/06/09 09:23:59;;;;;;;5.15;2.20;;;;;;;31.82;33.12;101456.94;5074096;28;20070;-86
2021/06/09 09:26:31;;;;;;;4.70;1.85;;;;;;;31.85;33.04;101454.00;5075645;28;20029;-77
2021/06/09 09:29:21;;;;;;;3.30;1.67;;;;;;;31.90;32.73;101453.50;5075422;28;20028;-79
2021/06/09 09:31:47;;;;;;;;;;;;;;;31.87;32.97;101456.41;5075926;28;20058;-79
2021/06/09 09:34:33;;;;;;;13.73;2.28;;;;;;;31.78;33.46;101454.19;5076172;28;20370;-87
2021/06/09 09:37:05;;;;;;;5.65;1.90;;;;;;;32.05;33.14;101444.63;5074652;28;20459;-77
2021/06/09 09:39:31;;;;;;;4.25;1.10;;;;;;;32.30;32.48;101447.56;5073443;28;20032;-87
2021/06/09 09:41:57;;;;;;;8.25;2.03;;;;;;;32.52;32.39;101444.97;5073663;28;20389;-77
2021/06/09 09:44:22;;;;;;;4.00;1.33;;;;;;;32.24;33.13;101455.00;5075811;28;20025;-83
2021/06/09 09:46:54;;;;;;;4.03;1.42;;;;;;;32.33;32.80;101446.69;5075155;28;20119;-77
2021/06/09 09:49:20;;;;;;;17.85;3.50;;;;;;;32.25;32.60;101456.59;5075987;28;20029;-87
2021/06/09 09:51:50;;;;;;;4.10;1.38;;;;;;;32.32;32.73;101453.59;5072655;28;20283;-78
2021/06/09 09:54:23;;;;;;;10.80;2.58;;;;;;;32.23;32.35;101445.72;5075483;28;20028;-88
2021/06/09 09:56:49;;;;;;;5.22;1.88;;;;;;;32.22;32.42;101446.19;5074796;28;20039;-77
2021/06/09 09:59:15;;;;;;;3.22;1.67;;;;;;;32.41;32.34;101435.97;5075846;28;20028;-76
2021/06/09 10:01:50;;;;;;;7.80;2.13;;;;;;;32.46;31.95;101441.88;5075413;28;20442;-76
2021/06/09 10:04:23;;;;;;;5.95;2.20;;;;;;;32.33;32.70;101443.06;5073960;28;20025;-77
2021/06/09 10:06:50;;;;;;;4.45;1.77;;;;;;;32.47;31.94;101440.63;5074227;28;20025;-76
2021/06/09 10:09:19;;;;;;;10.05;2.30;;;;;;;32.40;32.20;101429.53;5074942;28;20486;-80
2021/06/09 10:11:51;;;;;;;8.83;3.20;;;;;;;32.37;32.65;101430.44;5072732;28;20496;-77
2021/06/09 10:14:24;;;;;;;4.10;1.80;;;;;;;32.61;32.06;101432.97;5067537;28;20296;-78
2021/06/09 10:16:59;;;;;;;4.85;2.80;;;;;;;32.64;32.24;101437.72;5047878;28;20071;-83
2021/06/09 10:19:28;;;;;;;9.60;3.13;;;;;;;32.50;32.63;101436.13;5066149;28;20031;-76
2021/06/09 10:22:02;;;;;;;12.82;2.75;;;;;;;32.60;32.47;101429.38;5062297;28;20375;-76
2021/06/09 10:24:28;;;;;;;4.80;1.75;;;;;;;32.75;32.22;101432.56;5063888;28;20035;-76
2021/06/09 10:26:59;;;;;;;5.30;2.40;;;;;;;32.42;32.69;101435.53;5065589;28;20029;-76
2021/06/09 10:29:29;;;;;;;2.05;1.60;;;;;;;32.66;32.10;101429.59;5063395;28;20029;-76
2021/06/09 10:31:57;;;;;;;5.03;2.33;;;;;;;32.74;31.64;101428.16;5063754;28;20020;-76
2021/06/09 10:34:26;;;;;;;5.60;1.70;;;;;;;32.58;32.02;101435.47;5063422;28;20058;-85
2021/06/09 10:36:53;;;;;;;11.07;2.15;;;;;;;32.65;32.34;101425.16;5063932;28;20021;-76
2021/06/09 10:39:21;;;;;;;13.07;2.95;;;;;;;32.70;32.10;101430.28;5064075;28;20509;-77
2021/06/09 10:41:50;;;;;;;4.40;2.22;;;;;;;32.61;32.30;101425.28;5061854;28;20487;-78
2021/06/09 10:44:18;;;;;;;3.95;1.70;;;;;;;32.73;32.06;101421.69;5038859;28;20032;-77
2021/06/09 10:46:47;;;;;;;2.42;1.40;;;;;;;32.52;32.06;101416.66;5037631;28;20063;-77
2021/06/09 10:49:15;;;;;;;1.70;0.93;;;;;;;32.79;31.87;101419.09;5039762;28;20045;-78
2021/06/09 10:51:41;;;;;;;5.38;1.45;;;;;;;32.57;31.77;101416.91;5038496;28;20025;-77
2021/06/09 10:54:12;;;;;;;4.88;1.25;;;;;;;32.85;31.67;101406.00;5039504;28;20025;-76
2021/06/09 10:56:40;;;;;;;8.73;1.10;;;;;;;33.02;31.61;101404.63;5020868;28;20036;-77
2021/06/09 10:59:07;;;;;;;5.10;1.35;;;;;;;33.28;31.28;101402.59;5032185;28;20380;-76
2021/06/09 11:01:33;;;;;;;12.60;1.67;;;;;;;33.79;30.58;101396.06;5047764;28;20135;-76
2021/06/09 11:04:00;;;;;;;10.30;1.73;;;;;;;33.53;31.15;101404.63;5055705;28;20020;-75
2021/06/09 11:06:43;;;;;;;2.55;0.85;;;;;;;33.22;31.50;101406.47;5073512;28;20028;-76
2021/06/09 11:09:27;;;;;;;1.00;0.70;;;;;;;33.87;30.62;101403.06;5074494;28;20021;-76
2021/06/09 11:12:13;;;;;;;5.40;1.25;;;;;;;34.14;30.23;101408.19;5074618;28;20021;-76
2021/06/09 11:14:55;;;;;;;5.88;0.95;;;;;;;34.29;30.11;101414.13;5073422;28;20454;-76
2021/06/09 11:17:34;;;;;;;1.08;0.52;;;;;;;34.19;30.19;101414.06;5058129;28;20025;-77
2021/06/09 11:20:19;;;;;;;3.20;1.00;;;;;;;34.34;30.21;101405.84;5035574;28;20036;-83
2021/06/09 11:22:47;;;;;;;0.75;0.70;;;;;;;34.65;29.71;101403.06;5035192;28;20035;-78
2021/06/09 11:25:20;;;;;;;7.18;1.20;;;;;;;34.86;29.57;101407.13;5036334;28;20017;-77
2021/06/09 11:27:58;;;;;;;5.40;0.85;;;;;;;34.62;29.66;101412.50;5034506;28;20021;-77
2021/06/09 11:30:24;;;;;;;15.25;1.80;;;;;;;34.86;29.09;101404.28;5036227;28;20842;-77
2021/06/09 11:32:51;;;;;;;5.07;1.30;;;;;;;34.69;29.16;101403.72;5035478;28;20047;-77
2021/06/09 11:35:20;;;;;;;10.20;2.28;;;;;;;34.88;28.77;101395.28;5035221;28;20074;-77
2021/06/09 11:38:11;;;;;;;6.65;1.52;;;;;;;34.85;29.04;101407.59;5037341;28;20557;-76